Buckhead, Georgia
Current Conditions -  °F | °C
As of 8:55 PM on Monday 24 Nov 2014 (Local Time) from K3J7 Reporting Station
Clear Clear  
Wind Chill: 64°   Ceiling: Unl
Heat Index: 64°   Visibility: 10mi
Dew Point: 64°   Wind: 6mph
Humidity: 100%   Direction: 170°S
Pressure: 29.9"   Gusts: NA
Location:  33.57°N, 83.36°W
Report Text: K3J7 250155Z AUTO 17005KT 10SM CLR 18/18 A2990 RMK AO2 LTG DSNT SE
Loading
Personal Weather Stations






























Interactive Weather Map New forecast layout! Learn more

10-Day Weather Forecast

Advertisements
Track Severe Weather on mobile